AVP weather

Wilkes Barre Scranton International Airport
Wilkes-Barre/Scranton, Pennsylvania, United States

Public forecast

Using degrees Fahrenheit for public forecast. Weather courtesy of forecast.io.

METAR (pilot weather report)

Retrieved 2019/04/25 08:54 UTC (27 minutes ago):

KAVP 250854Z AUTO 00000KT 10SM CLR 07/03 A2994 RMK AO2 SLP135 T00670033 53001

TAF (pilot weather forecast)

Retrieved 2019/04/25 06:36 UTC (3 hours ago):

TAF KAVP 250534Z 2506/2606 VRB03KT P6SM SCT200 FM251500 22005KT P6SM BKN090 FM252200 VRB03KT P6SM OVC040 FM260400 15004KT P6SM -SHRA OVC030